Aosta Airport

LIMW · Aosta Valley, 意大利

罗盘
风向 的 Aosta Airport 9/27
风: 2 kt, 1 beaufort


2 kt
改变
0 1.000 2.000 3.000 4.000 5.000
未检测到零云
METAR LIMW 040950Z AUTO VRB02KT 9999 NCD 18/03 Q1023

METAR Aosta Airport - LIMW/AOT

Aosta Airport是Aosta,意大利中的中型机场。 该机场有一条跑道: 9/27. 该领域的国际民航组织标志是LIMW 它的国际航空运输协会代码是AOT.

这份报告是针对2022年10月4日 11:50, 当地时间在Aosta Airport进行的。

机场观察

可变方向的风很小或没有风。

可见度为10 km 或者更多。

有未检测到零云。 没有观察到天花板。

温度和风寒是18 °C。 露点为3 °C,相对湿度为37%。 海平面上的气压为1023 hPa (QNH)。

白天

今天,太阳从07:32升起,在19:05降落。 这适用于Aosta Airport,世界夏令时可能有所不同。 当地时间与世界标准时间之间的时差为+2 小时。 夏令时目前正在进行中。

公司介绍

我们没有关于这个机场的公司信息。

体会

到Vliegles.nl去找飞行课程,跳伞和其他飞行体验。 浏览页面,了解Aosta Airport附近所有可用的活动。 你也可以使用搜索功能来寻找你所在地附近的特定飞行课程、跳伞或其他飞行体验。

跑道

Id 标题 侧风 逆风 侧风 %
9/27 085°-265° 2 kt 100 %

逆风成分最大的方向会被突出显示,并用于横风计算。 这并不一定意味着这个方向在使用。

乌云

- NCD 未检测到零云

温度 & 天气

温度 18 °C
露点 3 °C
相对湿度 37%
Kp-index 2 (0-9)

白天

日出
07:32
中午
13:19
日落
19:05 (6h 45m)

小工具

你想在你的网站上有一个关于Aosta Airport的当前航空天气(METAR)的小部件吗?

</> 显示HTML代码

我们和第三方通过cookies跟踪您在我们网站上的上网行为。如果您继续,我们认为您同意我们的cookie政策。 了解更多